Time;durP1;ratioP1;P1;durP2;ratioP2;P2;SDS_P1;SDS_P2;PMS_P1;PMS_P2;Temp;Humidity;BMP_temperature;BMP_pressure;BME280_temperature;BME280_humidity;BME280_pressure;Samples;Min_cycle;Max_cycle;Signal;HPM_P1;HPM_P2
2021/04/15 00:01:37;;;;;;;0.85;0.63;;;19.30;42.20;;;;;;5129915;27;20043;-37
2021/04/15 00:04:06;;;;;;;1.00;0.90;;;19.30;42.20;;;;;;5123323;27;20050;-37
2021/04/15 00:06:33;;;;;;;1.20;0.90;;;19.30;42.20;;;;;;5112466;28;20456;-37
2021/04/15 00:09:05;;;;;;;0.60;0.60;;;19.30;42.20;;;;;;5124490;27;20055;-38
2021/04/15 00:11:33;;;;;;;1.70;1.02;;;19.30;42.20;;;;;;5133074;27;20051;-37
2021/04/15 00:14:00;;;;;;;0.98;0.73;;;19.30;42.20;;;;;;5126662;27;20130;-38
2021/04/15 00:16:29;;;;;;;1.60;0.90;;;19.30;42.20;;;;;;5120277;27;20509;-37
2021/04/15 00:18:57;;;;;;;0.88;0.70;;;19.30;42.20;;;;;;5114345;27;20505;-38
2021/04/15 00:21:25;;;;;;;1.48;0.80;;;19.30;42.20;;;;;;5129928;27;20118;-37
2021/04/15 00:23:52;;;;;;;1.00;0.70;;;19.30;42.20;;;;;;5132405;27;20047;-38
2021/04/15 00:26:22;;;;;;;1.00;0.70;;;19.30;42.20;;;;;;5131476;27;20055;-37
2021/04/15 00:28:51;;;;;;;1.20;0.88;;;19.30;42.20;;;;;;5132670;27;20047;-38
2021/04/15 00:31:18;;;;;;;1.60;0.77;;;19.30;42.20;;;;;;5133579;27;20071;-37
2021/04/15 00:33:45;;;;;;;1.05;0.75;;;19.30;42.20;;;;;;5130659;27;20048;-38
2021/04/15 00:36:12;;;;;;;1.30;1.00;;;19.30;42.20;;;;;;5131340;27;20371;-37
2021/04/15 00:38:40;;;;;;;1.63;0.80;;;19.30;42.20;;;;;;5115392;27;20094;-38
2021/04/15 00:41:10;;;;;;;0.85;0.70;;;19.30;42.20;;;;;;5134080;27;20113;-38
2021/04/15 00:43:42;;;;;;;0.95;0.80;;;19.30;42.20;;;;;;5131026;27;20078;-38
2021/04/15 00:46:44;;;;;;;0.70;0.63;;;19.30;42.20;;;;;;5131405;27;20103;-38
2021/04/15 00:49:50;;;;;;;0.93;0.80;;;19.30;42.20;;;;;;5087784;27;20334;-37
2021/04/15 00:52:19;;;;;;;0.60;0.60;;;19.30;42.20;;;;;;5023528;28;20046;-38
2021/04/15 00:54:53;;;;;;;1.38;1.02;;;19.30;42.20;;;;;;5018240;28;20452;-37
2021/04/15 00:57:26;;;;;;;1.13;0.80;;;19.20;42.10;;;;;;5029326;28;20041;-38
2021/04/15 00:59:53;;;;;;;1.67;1.05;;;19.30;42.30;;;;;;5028495;28;20042;-37
2021/04/15 01:02:23;;;;;;;1.20;0.80;;;19.30;42.20;;;;;;5030022;28;20156;-37
2021/04/15 01:04:56;;;;;;;0.73;0.70;;;19.30;42.20;;;;;;5029738;28;20469;-38
2021/04/15 01:07:22;;;;;;;1.50;0.70;;;19.30;42.20;;;;;;5025869;28;20057;-38
2021/04/15 01:09:51;;;;;;;0.80;0.70;;;19.30;42.20;;;;;;5013868;28;20081;-38
2021/04/15 01:12:41;;;;;;;0.88;0.73;;;19.20;42.10;;;;;;5028953;28;20049;-37
2021/04/15 01:15:22;;;;;;;1.48;0.80;;;19.30;42.20;;;;;;5015328;28;20049;-38
2021/04/15 01:18:15;;;;;;;0.95;0.63;;;19.30;42.20;;;;;;5028393;28;20092;-38
2021/04/15 01:21:11;;;;;;;0.70;0.70;;;19.30;42.20;;;;;;5025744;28;20107;-37
2021/04/15 01:24:02;;;;;;;0.98;0.80;;;19.20;42.10;;;;;;5027064;28;20053;-39
2021/04/15 01:26:31;;;;;;;1.00;0.60;;;19.20;42.10;;;;;;5028175;28;20559;-38
2021/04/15 01:29:34;;;;;;;1.30;0.80;;;19.20;42.10;;;;;;5127672;28;20107;-37
2021/04/15 01:32:25;;;;;;;1.42;0.80;;;19.30;42.20;;;;;;5131120;28;20085;-38
2021/04/15 01:35:23;;;;;;;0.70;0.70;;;19.30;42.20;;;;;;5127134;28;20070;-39
2021/04/15 01:38:04;;;;;;;0.95;0.80;;;19.20;42.10;;;;;;5114419;28;20123;-37
2021/04/15 01:41:15;;;;;;;1.55;1.20;;;19.20;42.10;;;;;;5116497;28;20047;-38
2021/04/15 01:43:49;;;;;;;1.10;0.85;;;19.20;42.10;;;;;;5028158;28;20505;-37
2021/04/15 01:46:19;;;;;;;0.80;0.65;;;19.20;42.20;;;;;;5029966;28;20053;-37
2021/04/15 01:48:49;;;;;;;1.15;0.88;;;19.30;42.20;;;;;;5028160;28;20049;-37
2021/04/15 01:51:22;;;;;;;1.17;0.80;;;19.20;42.10;;;;;;5020794;28;20382;-37
2021/04/15 01:54:26;;;;;;;0.98;0.88;;;19.20;42.10;;;;;;5031929;28;20448;-38
2021/04/15 01:57:15;;;;;;;1.20;0.80;;;19.20;42.10;;;;;;5022352;28;20045;-37
2021/04/15 02:00:13;;;;;;;1.10;0.70;;;19.20;42.10;;;;;;5015822;28;20042;-37
2021/04/15 02:02:44;;;;;;;0.88;0.70;;;19.20;42.10;;;;;;4993485;28;20082;-37
2021/04/15 02:05:37;;;;;;;1.02;0.80;;;19.20;42.10;;;;;;4993848;28;20053;-38
2021/04/15 02:08:15;;;;;;;1.20;0.80;;;19.20;42.10;;;;;;4992168;28;20043;-37
2021/04/15 02:10:49;;;;;;;0.98;0.70;;;19.20;42.10;;;;;;4992876;28;20462;-37
2021/04/15 02:13:17;;;;;;;1.15;0.80;;;19.20;42.10;;;;;;4991493;28;20119;-37
2021/04/15 02:15:58;;;;;;;0.70;0.68;;;19.20;42.20;;;;;;4993616;28;20114;-37
2021/04/15 02:18:31;;;;;;;0.70;0.55;;;19.20;42.10;;;;;;5010780;28;20075;-37
2021/04/15 02:21:03;;;;;;;1.02;0.68;;;19.20;42.10;;;;;;5073085;28;20044;-37
2021/04/15 02:23:37;;;;;;;1.00;0.63;;;19.30;42.20;;;;;;5073011;28;20133;-37
2021/04/15 02:26:17;;;;;;;1.20;0.80;;;19.20;42.10;;;;;;5071924;28;20492;-37
2021/04/15 02:29:12;;;;;;;0.80;0.70;;;19.20;42.10;;;;;;5072342;28;20079;-37
2021/04/15 02:32:05;;;;;;;0.70;0.60;;;19.20;42.10;;;;;;5072651;28;20126;-37
2021/04/15 02:34:37;;;;;;;0.82;0.70;;;19.20;42.10;;;;;;5056161;28;20053;-37
2021/04/15 02:37:09;;;;;;;1.33;0.73;;;19.20;42.10;;;;;;5072214;28;20040;-37
2021/04/15 02:39:41;;;;;;;1.02;0.80;;;19.20;42.10;;;;;;5099997;27;20439;-37
2021/04/15 02:42:12;;;;;;;0.98;0.70;;;19.20;42.10;;;;;;5118988;27;20040;-37
2021/04/15 02:44:48;;;;;;;0.80;0.73;;;19.20;42.20;;;;;;5113900;27;20437;-37
2021/04/15 02:47:30;;;;;;;0.95;0.60;;;19.20;42.10;;;;;;5114734;27;20050;-37
2021/04/15 02:49:59;;;;;;;1.33;0.85;;;19.20;42.10;;;;;;5118486;27;20114;-37
2021/04/15 02:52:30;;;;;;;1.02;0.73;;;19.20;42.10;;;;;;5120711;27;20052;-37
2021/04/15 02:55:06;;;;;;;1.10;1.00;;;19.20;42.10;;;;;;5115300;27;20130;-37
2021/04/15 02:57:38;;;;;;;0.80;0.80;;;19.20;42.10;;;;;;5113883;27;20039;-37
2021/04/15 03:00:39;;;;;;;0.80;0.70;;;19.20;42.10;;;;;;5121581;27;20130;-37
2021/04/15 03:03:14;;;;;;;0.80;0.68;;;19.20;42.10;;;;;;5111622;27;20083;-37
2021/04/15 03:05:51;;;;;;;0.63;0.57;;;19.20;42.10;;;;;;5112900;27;20133;-37
2021/04/15 03:08:23;;;;;;;0.98;0.80;;;19.20;42.10;;;;;;5116540;27;20061;-37
2021/04/15 03:10:56;;;;;;;0.82;0.70;;;19.20;42.10;;;;;;5114421;27;20096;-37
2021/04/15 03:13:45;;;;;;;0.98;0.70;;;19.20;42.10;;;;;;5110875;28;20052;-38
2021/04/15 03:16:15;;;;;;;1.38;0.88;;;19.20;42.10;;;;;;5114194;27;20484;-38
2021/04/15 03:18:46;;;;;;;0.88;0.80;;;19.20;42.10;;;;;;5115171;27;20120;-37
2021/04/15 03:21:25;;;;;;;0.65;0.47;;;19.20;42.10;;;;;;5119907;27;20050;-39
2021/04/15 03:24:11;;;;;;;0.73;0.60;;;19.20;42.10;;;;;;5115604;27;20039;-37
2021/04/15 03:26:40;;;;;;;1.10;0.75;;;19.20;42.10;;;;;;5116617;27;20461;-38
2021/04/15 03:29:18;;;;;;;1.00;0.77;;;19.20;42.10;;;;;;5118624;27;20611;-38
2021/04/15 03:31:55;;;;;;;0.75;0.73;;;19.20;42.10;;;;;;5115701;27;20113;-37
2021/04/15 03:34:30;;;;;;;0.88;0.60;;;19.20;42.10;;;;;;5125864;27;20090;-37
2021/04/15 03:36:58;;;;;;;0.70;0.60;;;19.20;42.10;;;;;;5118040;27;20051;-38
2021/04/15 03:39:33;;;;;;;1.55;0.90;;;19.20;42.10;;;;;;5116201;27;20082;-37
2021/04/15 03:42:45;;;;;;;1.15;0.70;;;19.20;42.70;;;;;;5124254;27;20048;-38
2021/04/15 03:45:22;;;;;;;0.80;0.65;;;19.20;42.10;;;;;;5033097;28;20056;-37
2021/04/15 03:47:55;;;;;;;1.25;0.75;;;19.20;42.10;;;;;;5041398;28;20045;-37
2021/04/15 03:50:27;;;;;;;0.95;0.70;;;19.20;42.10;;;;;;5030907;28;20072;-37
2021/04/15 03:53:04;;;;;;;0.63;0.50;;;19.20;42.10;;;;;;5038009;28;20068;-37
2021/04/15 03:55:36;;;;;;;0.60;0.60;;;19.20;42.10;;;;;;5032643;28;20053;-37
2021/04/15 03:58:12;;;;;;;0.93;0.85;;;19.20;42.10;;;;;;5031616;28;20045;-37
2021/04/15 04:00:45;;;;;;;1.25;0.77;;;19.20;42.10;;;;;;5032157;28;20048;-37
2021/04/15 04:03:17;;;;;;;1.00;0.90;;;19.20;42.10;;;;;;5043067;28;20051;-37
2021/04/15 04:06:00;;;;;;;1.27;0.90;;;19.20;42.10;;;;;;5033599;28;20045;-37
2021/04/15 04:08:40;;;;;;;0.70;0.50;;;19.20;42.10;;;;;;5043052;28;20536;-37
2021/04/15 04:11:10;;;;;;;0.93;0.70;;;19.20;42.10;;;;;;5041508;28;20075;-38
2021/04/15 04:13:45;;;;;;;1.08;0.73;;;19.20;42.10;;;;;;5039658;28;20053;-37
2021/04/15 04:16:27;;;;;;;0.60;0.52;;;19.20;42.20;;;;;;5097541;27;20040;-40
2021/04/15 04:19:02;;;;;;;1.15;0.70;;;19.20;42.10;;;;;;5112401;28;20123;-37
2021/04/15 04:21:29;;;;;;;0.60;0.60;;;19.20;42.10;;;;;;5113507;27;20047;-37
2021/04/15 04:24:02;;;;;;;1.20;0.90;;;19.20;42.10;;;;;;5113231;27;20039;-37
2021/04/15 04:26:37;;;;;;;1.83;0.80;;;19.20;42.10;;;;;;5125928;27;20103;-38
2021/04/15 04:29:15;;;;;;;1.02;0.75;;;19.20;42.10;;;;;;5113593;27;20048;-38
2021/04/15 04:31:46;;;;;;;0.68;0.60;;;19.20;42.10;;;;;;5112573;27;20104;-37
2021/04/15 04:34:16;;;;;;;1.23;0.75;;;19.20;42.10;;;;;;5118634;27;20453;-37
2021/04/15 04:36:45;;;;;;;1.30;0.82;;;19.20;42.10;;;;;;5119040;27;20047;-37
2021/04/15 04:39:15;;;;;;;0.90;0.70;;;19.20;42.10;;;;;;5116827;27;20085;-37
2021/04/15 04:41:41;;;;;;;1.15;0.80;;;19.20;42.10;;;;;;5115081;27;20060;-37
2021/04/15 04:44:17;;;;;;;0.80;0.60;;;19.20;42.10;;;;;;5115550;27;20043;-38
2021/04/15 04:47:06;;;;;;;1.13;0.68;;;19.20;42.10;;;;;;5112786;27;20094;-37
2021/04/15 04:49:44;;;;;;;1.27;0.63;;;19.20;42.10;;;;;;5119347;27;20047;-37
2021/04/15 04:52:32;;;;;;;1.52;0.90;;;19.20;42.10;;;;;;5125363;27;20067;-37
2021/04/15 04:55:06;;;;;;;0.80;0.80;;;19.20;42.10;;;;;;5114407;27;20494;-37
2021/04/15 04:57:37;;;;;;;0.80;0.70;;;19.20;42.10;;;;;;5113830;27;20427;-38
2021/04/15 05:00:16;;;;;;;1.17;0.80;;;19.20;42.10;;;;;;5118001;27;20039;-37
2021/04/15 05:02:42;;;;;;;1.25;0.90;;;19.20;42.10;;;;;;5125791;27;20037;-37
2021/04/15 05:05:19;;;;;;;1.70;0.80;;;19.20;42.10;;;;;;5114991;27;20043;-37
2021/04/15 05:07:48;;;;;;;0.90;0.63;;;19.20;42.10;;;;;;5114136;27;20063;-37
2021/04/15 05:10:24;;;;;;;0.90;0.80;;;19.20;42.10;;;;;;5115193;27;20057;-38
2021/04/15 05:13:24;;;;;;;0.80;0.65;;;19.20;42.10;;;;;;5112036;27;20047;-38
2021/04/15 05:15:52;;;;;;;0.60;0.60;;;19.20;42.10;;;;;;5123177;27;20047;-38
2021/04/15 05:18:21;;;;;;;1.27;0.80;;;19.20;42.10;;;;;;5119848;27;20066;-37
2021/04/15 05:20:49;;;;;;;0.55;0.52;;;19.20;42.10;;;;;;5112157;27;20048;-38
2021/04/15 05:23:49;;;;;;;1.15;0.80;;;19.20;42.10;;;;;;5131481;27;20129;-38
2021/04/15 05:26:17;;;;;;;0.85;0.80;;;19.20;42.10;;;;;;5121378;28;20052;-37
2021/04/15 05:28:47;;;;;;;0.98;0.85;;;19.20;42.10;;;;;;5111838;27;20051;-37
2021/04/15 05:31:18;;;;;;;1.00;0.90;;;19.20;42.10;;;;;;5124964;27;20047;-37
2021/04/15 05:33:45;;;;;;;0.93;0.80;;;19.20;42.10;;;;;;5112615;27;20070;-38
2021/04/15 05:36:37;;;;;;;1.10;0.80;;;19.20;42.10;;;;;;5112303;28;20116;-37
2021/04/15 05:39:08;;;;;;;0.93;0.85;;;19.20;42.10;;;;;;5125195;27;20051;-37
2021/04/15 05:41:45;;;;;;;0.98;0.77;;;19.20;42.10;;;;;;5114342;27;20044;-37
2021/04/15 05:44:34;;;;;;;1.10;0.70;;;19.20;42.10;;;;;;5124981;27;20085;-38
2021/04/15 05:47:05;;;;;;;0.95;0.70;;;19.20;42.10;;;;;;5122624;28;20055;-37
2021/04/15 05:49:39;;;;;;;0.60;0.60;;;19.20;42.10;;;;;;5125605;27;20143;-36
2021/04/15 05:52:20;;;;;;;1.17;0.80;;;19.20;42.10;;;;;;5127148;27;20047;-37
2021/04/15 05:54:48;;;;;;;1.02;0.82;;;19.20;42.10;;;;;;5118615;28;20079;-37
2021/04/15 05:57:23;;;;;;;1.52;0.93;;;19.20;42.10;;;;;;5118206;27;20449;-37
2021/04/15 05:59:56;;;;;;;1.23;0.90;;;19.20;42.10;;;;;;5111296;28;20048;-36
2021/04/15 06:02:44;;;;;;;0.98;0.70;;;19.20;42.10;;;;;;5117161;27;20121;-38
2021/04/15 06:05:33;;;;;;;0.73;0.68;;;19.20;42.10;;;;;;5121231;28;20040;-37
2021/04/15 06:08:06;;;;;;;0.90;0.70;;;19.20;42.10;;;;;;5104576;28;20047;-37
2021/04/15 06:10:39;;;;;;;0.80;0.63;;;19.20;42.10;;;;;;5094684;28;20423;-37
2021/04/15 06:13:42;;;;;;;1.03;0.93;;;19.20;42.10;;;;;;5112575;28;20275;-38
2021/04/15 06:16:18;;;;;;;1.10;1.00;;;19.20;42.10;;;;;;5111759;27;20350;-38
2021/04/15 06:19:15;;;;;;;0.75;0.70;;;19.20;42.10;;;;;;5122451;27;20470;-37
2021/04/15 06:22:17;;;;;;;1.63;0.80;;;19.20;42.10;;;;;;5110508;28;20052;-38
2021/04/15 06:24:48;;;;;;;1.33;1.02;;;19.20;42.10;;;;;;5026303;28;20160;-37
2021/04/15 06:27:16;;;;;;;0.70;0.60;;;19.20;42.10;;;;;;5032904;28;20053;-37
2021/04/15 06:29:56;;;;;;;1.08;0.98;;;19.20;42.10;;;;;;5028801;28;20440;-38
2021/04/15 06:32:47;;;;;;;1.45;0.90;;;19.20;42.10;;;;;;5033374;28;20149;-37
2021/04/15 06:35:24;;;;;;;0.98;0.60;;;19.20;42.10;;;;;;5032217;28;20056;-37
2021/04/15 06:38:13;;;;;;;0.75;0.65;;;19.20;42.10;;;;;;5040624;28;20052;-37
2021/04/15 06:41:12;;;;;;;0.95;0.77;;;19.20;42.10;;;;;;5039969;28;20053;-37
2021/04/15 06:43:52;;;;;;;1.55;0.90;;;19.20;42.10;;;;;;5035967;28;20119;-37
2021/04/15 06:46:42;;;;;;;1.77;0.70;;;19.20;42.10;;;;;;5036753;28;20083;-37
2021/04/15 06:49:24;;;;;;;1.15;0.70;;;19.20;42.10;;;;;;5034512;28;20049;-37
2021/04/15 06:51:57;;;;;;;0.75;0.60;;;19.20;42.10;;;;;;5035519;28;20053;-37
2021/04/15 06:54:38;;;;;;;1.00;0.80;;;19.20;42.10;;;;;;5039280;28;20084;-37
2021/04/15 06:57:25;;;;;;;0.73;0.60;;;19.20;42.10;;;;;;5034633;28;20056;-36
2021/04/15 07:00:29;;;;;;;0.75;0.60;;;19.20;42.10;;;;;;5038018;27;20049;-36
2021/04/15 07:03:01;;;;;;;1.00;0.70;;;19.20;42.10;;;;;;5126129;27;20047;-37
2021/04/15 07:05:54;;;;;;;1.73;0.75;;;19.20;42.10;;;;;;5131242;27;20046;-37
2021/04/15 07:08:49;;;;;;;0.85;0.85;;;19.20;42.10;;;;;;5116494;27;20043;-37
2021/04/15 07:11:54;;;;;;;0.80;0.70;;;19.20;42.10;;;;;;5117018;27;20089;-38
2021/04/15 07:14:44;;;;;;;1.10;0.80;;;19.20;42.10;;;;;;5114984;27;20056;-42
2021/04/15 07:17:48;;;;;;;0.70;0.60;;;19.20;42.10;;;;;;5130434;27;20046;-37
2021/04/15 07:20:35;;;;;;;1.38;0.77;;;19.20;42.10;;;;;;5121404;27;20088;-37
2021/04/15 07:23:27;;;;;;;0.80;0.70;;;19.20;42.10;;;;;;5118101;27;20134;-38
2021/04/15 07:26:13;;;;;;;0.80;0.80;;;19.20;42.00;;;;;;5127612;27;20048;-38
2021/04/15 07:29:04;;;;;;;1.00;0.70;;;19.20;42.00;;;;;;5117581;27;20537;-38
2021/04/15 07:31:36;;;;;;;1.02;0.80;;;19.20;42.00;;;;;;5115471;27;20123;-38
2021/04/15 07:34:16;;;;;;;1.25;0.70;;;19.20;42.10;;;;;;5113432;27;20044;-39
2021/04/15 07:37:22;;;;;;;1.10;0.90;;;19.20;42.00;;;;;;5127011;27;20051;-42
2021/04/15 07:39:59;;;;;;;1.17;0.77;;;19.20;42.00;;;;;;5109209;27;20603;-37
2021/04/15 07:43:22;;;;;;;1.00;0.80;;;19.20;42.00;;;;;;5116499;27;20044;-38
2021/04/15 07:46:10;;;;;;;1.08;0.75;;;19.30;42.10;;;;;;5047634;28;20488;-37
2021/04/15 07:48:57;;;;;;;1.70;0.90;;;19.20;42.00;;;;;;5048222;28;20053;-39
2021/04/15 07:51:42;;;;;;;0.82;0.70;;;19.20;42.00;;;;;;5039655;28;20386;-38
2021/04/15 07:54:30;;;;;;;1.10;0.82;;;19.20;42.00;;;;;;5048790;28;20045;-38
2021/04/15 07:57:15;;;;;;;0.93;0.75;;;19.20;42.00;;;;;;5030904;28;20076;-38
2021/04/15 08:00:12;;;;;;;0.88;0.70;;;19.30;42.10;;;;;;5048090;28;20041;-38
2021/04/15 08:02:53;;;;;;;0.70;0.70;;;19.30;42.10;;;;;;5047203;28;20049;-38
2021/04/15 08:05:40;;;;;;;0.60;0.60;;;19.30;42.10;;;;;;5046886;28;20460;-38
2021/04/15 08:08:27;;;;;;;0.90;0.75;;;19.20;41.90;;;;;;5048104;28;20052;-38
2021/04/15 08:11:12;;;;;;;1.33;0.60;;;19.30;42.00;;;;;;5046989;28;20052;-38
2021/04/15 08:13:58;;;;;;;;;;;19.30;42.00;;;;;;5048584;28;20092;-38
2021/04/15 08:16:38;;;;;;;;;;;19.30;42.00;;;;;;5084150;28;19989;-39
2021/04/15 08:19:46;;;;;;;0.75;0.60;;;19.30;42.00;;;;;;5131028;27;19919;-39
2021/04/15 08:22:21;;;;;;;1.48;0.93;;;19.30;42.10;;;;;;5113927;27;20043;-39
2021/04/15 08:25:14;;;;;;;0.85;0.77;;;19.20;41.90;;;;;;5114696;27;20100;-39
2021/04/15 08:28:19;;;;;;;1.25;0.93;;;19.20;41.90;;;;;;5117888;27;20460;-38
2021/04/15 08:31:07;;;;;;;1.05;0.82;;;19.30;42.00;;;;;;5114808;27;20093;-38
2021/04/15 08:33:42;;;;;;;0.95;0.75;;;19.30;42.00;;;;;;5115085;27;20083;-38
2021/04/15 08:36:45;;;;;;;0.90;0.70;;;19.30;42.00;;;;;;5118094;27;20039;-38
2021/04/15 08:39:34;;;;;;;0.73;0.70;;;19.30;42.00;;;;;;5113990;27;20993;-38
2021/04/15 08:42:26;;;;;;;1.50;0.80;;;19.30;42.00;;;;;;5095969;28;20071;-39
2021/04/15 08:45:07;;;;;;;0.80;0.80;;;19.30;42.00;;;;;;5118987;27;20039;-38
2021/04/15 08:47:56;;;;;;;1.05;0.90;;;19.30;41.90;;;;;;5114558;27;20051;-38
2021/04/15 08:50:35;;;;;;;1.23;0.90;;;19.30;41.90;;;;;;5118656;27;20040;-37
2021/04/15 08:53:36;;;;;;;1.45;0.80;;;19.30;41.90;;;;;;5123766;27;20088;-39
2021/04/15 08:56:20;;;;;;;1.60;0.80;;;19.30;41.80;;;;;;5114470;27;20055;-39
2021/04/15 08:58:53;;;;;;;1.33;1.00;;;19.30;41.80;;;;;;5126026;27;20043;-38
2021/04/15 09:01:57;;;;;;;1.17;0.90;;;19.30;41.80;;;;;;5117274;27;20043;-38
2021/04/15 09:04:40;;;;;;;1.30;0.88;;;19.30;41.90;;;;;;5114609;27;20044;-38
2021/04/15 09:07:11;;;;;;;1.42;0.85;;;19.30;41.80;;;;;;5114303;27;20145;-38
2021/04/15 09:09:50;;;;;;;0.65;0.57;;;19.40;41.90;;;;;;5113798;27;20047;-38
2021/04/15 09:12:49;;;;;;;0.98;0.75;;;19.40;41.90;;;;;;5125151;27;20093;-38
2021/04/15 09:15:23;;;;;;;1.00;0.90;;;19.40;41.80;;;;;;5031607;28;20626;-39
2021/04/15 09:18:19;;;;;;;1.17;0.90;;;19.40;41.80;;;;;;5031595;28;20042;-38
2021/04/15 09:21:23;;;;;;;0.70;0.60;;;19.40;41.80;;;;;;5023187;28;20108;-38
2021/04/15 09:23:55;;;;;;;1.30;1.00;;;19.30;41.70;;;;;;5008199;28;20046;-38
2021/04/15 09:26:27;;;;;;;1.30;1.00;;;19.30;41.70;;;;;;5015646;28;20053;-38
2021/04/15 09:29:13;;;;;;;1.15;0.90;;;19.30;41.70;;;;;;5009401;28;20135;-37
2021/04/15 09:31:51;;;;;;;1.20;0.98;;;19.30;41.70;;;;;;5016337;28;20072;-38
2021/04/15 09:34:32;;;;;;;1.00;0.80;;;19.30;41.70;;;;;;5020774;28;20049;-38
2021/04/15 09:37:36;;;;;;;1.20;0.98;;;19.30;41.70;;;;;;5006571;28;20089;-38
2021/04/15 09:40:10;;;;;;;1.30;0.98;;;19.40;41.80;;;;;;4990197;28;20049;-38
2021/04/15 09:42:58;;;;;;;1.02;0.80;;;19.40;41.80;;;;;;5008078;28;20061;-38
2021/04/15 09:45:57;;;;;;;1.15;0.70;;;19.40;41.80;;;;;;5006472;28;20057;-39
2021/04/15 09:48:56;;;;;;;0.73;0.73;;;19.40;41.70;;;;;;5006110;28;20053;-38
2021/04/15 09:51:55;;;;;;;1.30;0.73;;;19.30;41.60;;;;;;5036115;28;20040;-38
2021/04/15 09:54:36;;;;;;;1.15;0.80;;;19.30;41.60;;;;;;5047629;28;20044;-38
2021/04/15 09:57:25;;;;;;;1.23;0.63;;;19.30;41.60;;;;;;5058407;28;20221;-39
2021/04/15 10:00:11;;;;;;;0.98;0.65;;;19.30;41.60;;;;;;5096910;27;20050;-39
2021/04/15 10:02:46;;;;;;;1.23;0.80;;;19.40;41.70;;;;;;5120634;28;20043;-38
2021/04/15 10:05:35;;;;;;;0.80;0.68;;;19.40;41.70;;;;;;5113981;27;20051;-38
2021/04/15 10:08:15;;;;;;;1.17;0.98;;;19.40;41.70;;;;;;5121691;27;20070;-38
2021/04/15 10:11:05;;;;;;;1.00;0.82;;;19.40;41.70;;;;;;5110825;27;20101;-38
2021/04/15 10:14:05;;;;;;;1.38;0.80;;;19.40;41.70;;;;;;5122956;27;20572;-38
2021/04/15 10:16:57;;;;;;;1.25;0.90;;;19.40;41.70;;;;;;5116757;27;20098;-38
2021/04/15 10:20:02;;;;;;;1.20;1.00;;;19.40;41.70;;;;;;5127631;27;20039;-38
2021/04/15 10:23:02;;;;;;;1.30;0.65;;;19.30;41.60;;;;;;5126100;27;20096;-38
2021/04/15 10:26:08;;;;;;;1.00;0.88;;;19.30;41.60;;;;;;5122591;27;20125;-38
2021/04/15 10:28:43;;;;;;;1.42;0.98;;;19.30;41.60;;;;;;5109652;27;20043;-39
2021/04/15 10:31:18;;;;;;;1.25;0.82;;;19.30;41.60;;;;;;5127594;27;20039;-38
2021/04/15 10:34:15;;;;;;;1.65;1.10;;;19.30;41.60;;;;;;5125047;27;20141;-38
2021/04/15 10:36:45;;;;;;;0.98;0.80;;;19.40;41.70;;;;;;5129490;27;20050;-38
2021/04/15 10:39:34;;;;;;;1.25;0.98;;;19.40;41.70;;;;;;5125638;27;20498;-38
2021/04/15 10:42:01;;;;;;;1.15;0.90;;;19.40;41.70;;;;;;5132256;27;20485;-38
2021/04/15 10:44:33;;;;;;;0.90;0.80;;;19.40;41.70;;;;;;5115148;27;20596;-39
2021/04/15 10:47:13;;;;;;;1.88;0.95;;;19.40;41.70;;;;;;5118008;27;20129;-38
2021/04/15 10:50:01;;;;;;;0.80;0.80;;;19.40;41.70;;;;;;5115769;27;20055;-38
2021/04/15 10:52:31;;;;;;;0.95;0.68;;;19.30;41.60;;;;;;5115831;27;20475;-39
2021/04/15 10:55:20;;;;;;;1.23;1.02;;;19.40;41.70;;;;;;5122049;27;20104;-38
2021/04/15 10:57:47;;;;;;;0.75;0.75;;;19.30;41.60;;;;;;5129726;27;20047;-38
2021/04/15 11:00:18;;;;;;;1.30;0.80;;;19.30;41.60;;;;;;5124738;27;20440;-38
2021/04/15 11:02:51;;;;;;;1.00;0.82;;;19.40;41.70;;;;;;5121863;27;20103;-38
2021/04/15 11:05:28;;;;;;;1.08;0.60;;;19.30;41.60;;;;;;5122875;27;20120;-38
2021/04/15 11:08:05;;;;;;;1.65;1.00;;;19.30;41.60;;;;;;5130294;27;20079;-39
2021/04/15 11:10:35;;;;;;;0.80;0.60;;;19.30;41.70;;;;;;5105171;28;20085;-39
2021/04/15 11:13:18;;;;;;;1.05;0.85;;;19.40;41.70;;;;;;5122724;27;20051;-39
2021/04/15 11:15:48;;;;;;;1.30;0.95;;;19.30;41.60;;;;;;5119647;27;20055;-38
2021/04/15 11:18:36;;;;;;;1.60;0.90;;;19.40;41.80;;;;;;5125858;27;20040;-39
2021/04/15 11:21:34;;;;;;;1.63;1.05;;;19.30;41.70;;;;;;5120471;27;20054;-38
2021/04/15 11:24:20;;;;;;;1.10;0.82;;;19.30;41.70;;;;;;5112432;27;20059;-38
2021/04/15 11:26:51;;;;;;;1.40;0.82;;;19.30;41.70;;;;;;5124066;27;20415;-38
2021/04/15 11:29:24;;;;;;;1.25;0.93;;;19.30;41.80;;;;;;5124709;27;20084;-38
2021/04/15 11:31:53;;;;;;;1.40;0.90;;;19.30;41.80;;;;;;5123461;27;20097;-39
2021/04/15 11:34:40;;;;;;;1.02;0.60;;;19.30;41.70;;;;;;5119943;27;20059;-39
2021/04/15 11:37:19;;;;;;;1.77;1.15;;;19.30;41.70;;;;;;5115912;27;20444;-39
2021/04/15 11:39:46;;;;;;;1.10;0.77;;;19.30;41.70;;;;;;5120480;27;20043;-37
2021/04/15 11:42:15;;;;;;;1.52;1.00;;;19.30;41.70;;;;;;5130865;27;20067;-38
2021/04/15 11:44:51;;;;;;;1.42;0.80;;;19.30;41.70;;;;;;5122208;27;20035;-37
2021/04/15 11:47:25;;;;;;;1.50;0.98;;;19.40;41.80;;;;;;5130385;27;20207;-37
2021/04/15 11:49:53;;;;;;;0.80;0.70;;;19.30;41.70;;;;;;5112143;27;20055;-38
2021/04/15 11:52:28;;;;;;;1.13;0.60;;;19.30;41.70;;;;;;5129185;27;20564;-38
2021/04/15 11:54:54;;;;;;;0.80;0.73;;;19.40;41.80;;;;;;5120230;27;20111;-37
2021/04/15 11:57:27;;;;;;;0.98;0.80;;;19.40;41.80;;;;;;5123698;27;20043;-37
2021/04/15 11:59:56;;;;;;;1.80;0.90;;;19.40;41.80;;;;;;5115630;27;20086;-37
2021/04/15 12:02:30;;;;;;;0.90;0.80;;;19.40;41.80;;;;;;5117945;27;20119;-37
2021/04/15 12:05:16;;;;;;;0.70;0.70;;;19.40;41.80;;;;;;5115897;27;20079;-38
2021/04/15 12:08:20;;;;;;;0.98;0.77;;;19.40;41.80;;;;;;5116668;27;20098;-38
2021/04/15 12:10:50;;;;;;;0.83;0.80;;;19.40;41.80;;;;;;5112279;27;20442;-39
2021/04/15 12:13:42;;;;;;;1.30;0.90;;;19.40;41.80;;;;;;5128969;27;20087;-39
2021/04/15 12:16:46;;;;;;;0.98;0.77;;;19.40;41.80;;;;;;5104034;27;20051;-38
2021/04/15 12:19:22;;;;;;;1.15;0.70;;;19.40;41.80;;;;;;5115173;27;20040;-38
2021/04/15 12:21:52;;;;;;;0.88;0.68;;;19.40;41.80;;;;;;5128729;27;20090;-38
2021/04/15 12:24:39;;;;;;;1.13;0.80;;;19.40;41.80;;;;;;5116879;27;20429;-38
2021/04/15 12:27:16;;;;;;;0.65;0.65;;;19.30;41.70;;;;;;5112537;27;20050;-38
2021/04/15 12:30:02;;;;;;;2.22;0.70;;;19.40;41.80;;;;;;5112683;28;20086;-38
2021/04/15 12:32:32;;;;;;;0.93;0.80;;;19.30;41.70;;;;;;5118144;27;20051;-38
2021/04/15 12:35:22;;;;;;;1.05;0.80;;;19.40;41.80;;;;;;5118296;27;20494;-37
2021/04/15 12:37:58;;;;;;;1.20;0.90;;;19.30;41.70;;;;;;5114416;27;20047;-37
2021/04/15 12:40:31;;;;;;;0.90;0.70;;;19.40;41.80;;;;;;5112157;27;20507;-37
2021/04/15 12:43:05;;;;;;;1.00;0.90;;;19.40;41.80;;;;;;5115330;27;20055;-38
2021/04/15 12:45:37;;;;;;;1.10;0.80;;;19.40;41.80;;;;;;5114017;27;20039;-38
2021/04/15 12:48:06;;;;;;;1.17;0.90;;;19.40;41.80;;;;;;5101878;27;20051;-37
2021/04/15 12:50:35;;;;;;;2.25;1.08;;;19.40;41.80;;;;;;5120713;27;20052;-38
2021/04/15 12:53:05;;;;;;;1.48;0.90;;;19.40;41.80;;;;;;5113406;27;20073;-38
2021/04/15 12:55:32;;;;;;;1.30;0.85;;;19.40;41.80;;;;;;5118668;27;20047;-38
2021/04/15 12:58:04;;;;;;;1.50;0.90;;;19.40;41.80;;;;;;5125503;27;20103;-38
2021/04/15 13:00:35;;;;;;;1.10;0.82;;;19.40;41.80;;;;;;5112787;27;20044;-37
2021/04/15 13:03:11;;;;;;;1.42;0.70;;;19.40;41.80;;;;;;5123337;27;20050;-38
2021/04/15 13:05:38;;;;;;;1.33;0.80;;;19.40;41.80;;;;;;5128643;27;20122;-38
2021/04/15 13:08:27;;;;;;;1.02;0.80;;;19.40;41.80;;;;;;5112214;28;20490;-37
2021/04/15 13:10:53;;;;;;;1.52;0.90;;;19.40;41.80;;;;;;5113262;27;20093;-37
2021/04/15 13:13:36;;;;;;;0.98;0.85;;;19.40;41.80;;;;;;5111776;28;20624;-37
2021/04/15 13:16:06;;;;;;;1.27;0.90;;;19.40;41.80;;;;;;5114676;27;20054;-38
2021/04/15 13:18:40;;;;;;;0.77;0.68;;;19.40;41.80;;;;;;5112674;27;20081;-38
2021/04/15 13:21:12;;;;;;;0.90;0.65;;;19.40;41.80;;;;;;5122244;27;20043;-38
2021/04/15 13:23:42;;;;;;;1.80;0.80;;;19.40;41.70;;;;;;5115993;27;20462;-38
2021/04/15 13:26:12;;;;;;;1.23;0.73;;;19.40;41.70;;;;;;5111491;27;20043;-38
2021/04/15 13:28:41;;;;;;;0.88;0.77;;;19.40;41.70;;;;;;5113261;27;20048;-37
2021/04/15 13:31:09;;;;;;;1.33;0.70;;;19.40;41.70;;;;;;5097809;28;20052;-38
2021/04/15 13:33:59;;;;;;;1.08;0.70;;;19.40;41.70;;;;;;5119025;28;20055;-38
2021/04/15 13:36:26;;;;;;;1.33;1.00;;;19.40;41.80;;;;;;5122985;27;20519;-38
2021/04/15 13:38:53;;;;;;;0.90;0.73;;;19.40;41.70;;;;;;5119173;27;20075;-38
2021/04/15 13:41:23;;;;;;;0.90;0.70;;;19.40;41.80;;;;;;5125216;27;20040;-37
2021/04/15 13:43:52;;;;;;;2.22;0.90;;;19.40;41.80;;;;;;5120036;27;20039;-38
2021/04/15 13:46:24;;;;;;;0.90;0.85;;;19.40;41.80;;;;;;5129423;27;20407;-37
2021/04/15 13:48:59;;;;;;;1.92;0.93;;;19.40;41.80;;;;;;5098568;27;20039;-38
2021/04/15 13:51:36;;;;;;;1.25;0.77;;;19.40;41.80;;;;;;5126622;27;21740;-37
2021/04/15 13:54:02;;;;;;;0.98;0.70;;;19.40;41.80;;;;;;5101049;27;20042;-38